There are multiple Weather-warnings   Click here for more information


Meteo18 Weather Cam more information Meteo18 Weather Cam


warning for Thunderstorms more information blitzortung!


Rain radar more information rain snow radar


Visit our other weather sites:

Template documentation
and downloads

And another site



Weather Underground History page Text

Daily Summary for January 17, 2017 Units:  Both    English   Metric
« Previous Day
Next Day »
Daily Weekly Monthly Yearly Custom
  High: Low: Average:
Temperature: 30.2 °F /  -1.0 °C 24.4 °F /  -4.2 °C 26.8 °F /  -2.9 °C
Dew Point: 27.5 °F /  -2.5 °C 19.8 °F /  -6.8 °C 22.6 °F /  -5.2 °C
Humidity: 90 % 75 % 84 %
Wind Speed: 16 mph /  25.7 km/h - 7.3 mph /  11.7 km/h
Wind Gust: 26 mph /  41.8 km/h - -
Wind:- - ESE
Pressure: 30.5 in /  1031.4 hPa 30.4 in /  1028.7 hPa -
Precipitation: 0 in /  0.0 mm    
Historical Graphs
 
 
Tabular Data for January 17, 2017
Time Temperature Dew Point Pressure Wind Wind Speed Wind Gust Humidity Rainfall Rate (Hourly)
00:02 30 °F /  -1.1 °C 27.5 °F /  -2.5 °C 30.4 in /  1028.7 hPa NE 4 mph /  6.4 km/h 11 mph /  17.7 km/h 90 % 0 in /  0.0 mm
00:07 29.8 °F /  -1.2 °C 27.3 °F /  -2.6 °C 30.4 in /  1028.7 hPa NNE 5 mph /  8.0 km/h 9 mph /  14.5 km/h 90 % 0 in /  0.0 mm
00:12 29.8 °F /  -1.2 °C 27.3 °F /  -2.6 °C 30.4 in /  1028.7 hPa NNE 8 mph /  12.9 km/h 12 mph /  19.3 km/h 90 % 0 in /  0.0 mm
00:17 30 °F /  -1.1 °C 27.1 °F /  -2.7 °C 30.4 in /  1028.7 hPa North 8 mph /  12.9 km/h 12 mph /  19.3 km/h 89 % 0 in /  0.0 mm
00:22 30.2 °F /  -1.0 °C 27.1 °F /  -2.7 °C 30.4 in /  1028.7 hPa NNE 12 mph /  19.3 km/h 13 mph /  20.9 km/h 88 % 0 in /  0.0 mm
00:27 30 °F /  -1.1 °C 27.1 °F /  -2.7 °C 30.4 in /  1028.7 hPa NE 13 mph /  20.9 km/h 16 mph /  25.7 km/h 89 % 0 in /  0.0 mm
00:32 30 °F /  -1.1 °C 27.1 °F /  -2.7 °C 30.4 in /  1028.7 hPa NE 8 mph /  12.9 km/h 16 mph /  25.7 km/h 89 % 0 in /  0.0 mm
00:37 30 °F /  -1.1 °C 27 °F /  -2.8 °C 30.4 in /  1028.7 hPa North 6 mph /  9.7 km/h 15 mph /  24.1 km/h 88 % 0 in /  0.0 mm
00:42 30 °F /  -1.1 °C 27 °F /  -2.8 °C 30.4 in /  1028.7 hPa NE 6 mph /  9.7 km/h 15 mph /  24.1 km/h 88 % 0 in /  0.0 mm
00:52 29.8 °F /  -1.2 °C 26.8 °F /  -2.9 °C 30.4 in /  1028.7 hPa NE 8 mph /  12.9 km/h 15 mph /  24.1 km/h 88 % 0 in /  0.0 mm
00:57 29.8 °F /  -1.2 °C 26.8 °F /  -2.9 °C 30.4 in /  1028.7 hPa NE 6 mph /  9.7 km/h 13 mph /  20.9 km/h 88 % 0 in /  0.0 mm
01:02 29.8 °F /  -1.2 °C 26.8 °F /  -2.9 °C 30.4 in /  1028.7 hPa ENE 9 mph /  14.5 km/h 15 mph /  24.1 km/h 88 % 0 in /  0.0 mm
01:07 29.7 °F /  -1.3 °C 26.2 °F /  -3.2 °C 30.4 in /  1028.7 hPa NE 10 mph /  16.1 km/h 15 mph /  24.1 km/h 87 % 0 in /  0.0 mm
01:12 29.7 °F /  -1.3 °C 26.2 °F /  -3.2 °C 30.4 in /  1028.7 hPa NNE 12 mph /  19.3 km/h 15 mph /  24.1 km/h 87 % 0 in /  0.0 mm
01:17 29.7 °F /  -1.3 °C 26.2 °F /  -3.2 °C 30.4 in /  1028.7 hPa NE 8 mph /  12.9 km/h 13 mph /  20.9 km/h 87 % 0 in /  0.0 mm
01:27 29.3 °F /  -1.5 °C 25.9 °F /  -3.4 °C 30.4 in /  1028.7 hPa NNW 3 mph /  4.8 km/h 14 mph /  22.5 km/h 87 % 0 in /  0.0 mm
01:32 29.1 °F /  -1.6 °C 25.7 °F /  -3.5 °C 30.4 in /  1028.7 hPa NNW 6 mph /  9.7 km/h 12 mph /  19.3 km/h 87 % 0 in /  0.0 mm
01:37 29.1 °F /  -1.6 °C 25.7 °F /  -3.5 °C 30.4 in /  1028.7 hPa NE 5 mph /  8.0 km/h 12 mph /  19.3 km/h 87 % 0 in /  0.0 mm
01:42 28.9 °F /  -1.7 °C 25.5 °F /  -3.6 °C 30.4 in /  1028.7 hPa NE 9 mph /  14.5 km/h 12 mph /  19.3 km/h 87 % 0 in /  0.0 mm
01:47 28.9 °F /  -1.7 °C 25.5 °F /  -3.6 °C 30.4 in /  1028.7 hPa NE 4 mph /  6.4 km/h 12 mph /  19.3 km/h 87 % 0 in /  0.0 mm
01:52 28.8 °F /  -1.8 °C 25.3 °F /  -3.7 °C 30.4 in /  1028.7 hPa North 5 mph /  8.0 km/h 12 mph /  19.3 km/h 87 % 0 in /  0.0 mm
01:57 28.8 °F /  -1.8 °C 25.3 °F /  -3.7 °C 30.4 in /  1028.7 hPa NE 3 mph /  4.8 km/h 12 mph /  19.3 km/h 87 % 0 in /  0.0 mm
02:02 28.8 °F /  -1.8 °C 25.3 °F /  -3.7 °C 30.4 in /  1028.7 hPa NNE 8 mph /  12.9 km/h 11 mph /  17.7 km/h 87 % 0 in /  0.0 mm
02:12 28.6 °F /  -1.9 °C 25.5 °F /  -3.6 °C 30.4 in /  1028.7 hPa NNW 2 mph /  3.2 km/h 11 mph /  17.7 km/h 88 % 0 in /  0.0 mm
02:17 28.4 °F /  -2.0 °C 25.3 °F /  -3.7 °C 30.4 in /  1028.7 hPa North 2 mph /  3.2 km/h 11 mph /  17.7 km/h 88 % 0 in /  0.0 mm
02:22 28.2 °F /  -2.1 °C 25.2 °F /  -3.8 °C 30.4 in /  1028.7 hPa NNW 3 mph /  4.8 km/h 10 mph /  16.1 km/h 88 % 0 in /  0.0 mm
02:27 28.2 °F /  -2.1 °C 25.3 °F /  -3.7 °C 30.4 in /  1028.7 hPa North 6 mph /  9.7 km/h 10 mph /  16.1 km/h 89 % 0 in /  0.0 mm
02:32 28.2 °F /  -2.1 °C 25.3 °F /  -3.7 °C 30.4 in /  1028.7 hPa NNW 9 mph /  14.5 km/h 9 mph /  14.5 km/h 89 % 0 in /  0.0 mm
02:37 28.2 °F /  -2.1 °C 25.3 °F /  -3.7 °C 30.4 in /  1028.7 hPa NNW 2 mph /  3.2 km/h 9 mph /  14.5 km/h 89 % 0 in /  0.0 mm
02:42 28.2 °F /  -2.1 °C 25.3 °F /  -3.7 °C 30.4 in /  1028.7 hPa North 4 mph /  6.4 km/h 11 mph /  17.7 km/h 89 % 0 in /  0.0 mm
02:47 28 °F /  -2.2 °C 25.5 °F /  -3.6 °C 30.4 in /  1028.7 hPa NNW 1 mph /  1.6 km/h 11 mph /  17.7 km/h 90 % 0 in /  0.0 mm
02:52 28 °F /  -2.2 °C 25.5 °F /  -3.6 °C 30.4 in /  1028.7 hPa NNW 2 mph /  3.2 km/h 11 mph /  17.7 km/h 90 % 0 in /  0.0 mm
02:57 27.9 °F /  -2.3 °C 25.3 °F /  -3.7 °C 30.4 in /  1028.7 hPa NNE 2 mph /  3.2 km/h 10 mph /  16.1 km/h 90 % 0 in /  0.0 mm
03:02 27.9 °F /  -2.3 °C 25.3 °F /  -3.7 °C 30.4 in /  1029.0 hPa NNE 4 mph /  6.4 km/h 7 mph /  11.3 km/h 90 % 0 in /  0.0 mm
03:07 27.9 °F /  -2.3 °C 25.3 °F /  -3.7 °C 30.4 in /  1029.0 hPa NNE 2 mph /  3.2 km/h 9 mph /  14.5 km/h 90 % 0 in /  0.0 mm
03:12 27.9 °F /  -2.3 °C 25.3 °F /  -3.7 °C 30.4 in /  1029.0 hPa NE 7 mph /  11.3 km/h 11 mph /  17.7 km/h 90 % 0 in /  0.0 mm
03:17 28 °F /  -2.2 °C 25.5 °F /  -3.6 °C 30.4 in /  1029.0 hPa WNW 1 mph /  1.6 km/h 11 mph /  17.7 km/h 90 % 0 in /  0.0 mm
03:22 28 °F /  -2.2 °C 25.5 °F /  -3.6 °C 30.4 in /  1029.0 hPa NNW 2 mph /  3.2 km/h 11 mph /  17.7 km/h 90 % 0 in /  0.0 mm
03:27 28 °F /  -2.2 °C 25.5 °F /  -3.6 °C 30.4 in /  1029.0 hPa ENE 3 mph /  4.8 km/h 11 mph /  17.7 km/h 90 % 0 in /  0.0 mm
03:32 28.2 °F /  -2.1 °C 25.7 °F /  -3.5 °C 30.4 in /  1029.0 hPa NE 4 mph /  6.4 km/h 11 mph /  17.7 km/h 90 % 0 in /  0.0 mm
03:42 28.2 °F /  -2.1 °C 25.3 °F /  -3.7 °C 30.4 in /  1029.0 hPa NE 10 mph /  16.1 km/h 13 mph /  20.9 km/h 89 % 0 in /  0.0 mm
03:52 28.2 °F /  -2.1 °C 25.2 °F /  -3.8 °C 30.4 in /  1029.0 hPa NNE 11 mph /  17.7 km/h 18 mph /  29.0 km/h 88 % 0 in /  0.0 mm
03:57 28 °F /  -2.2 °C 25.2 °F /  -3.8 °C 30.4 in /  1028.7 hPa NNE 5 mph /  8.0 km/h 18 mph /  29.0 km/h 89 % 0 in /  0.0 mm
04:02 27.9 °F /  -2.3 °C 25 °F /  -3.9 °C 30.4 in /  1029.0 hPa NNW 7 mph /  11.3 km/h 18 mph /  29.0 km/h 89 % 0 in /  0.0 mm
04:12 27.7 °F /  -2.4 °C 24.8 °F /  -4.0 °C 30.4 in /  1029.0 hPa NNE 9 mph /  14.5 km/h 14 mph /  22.5 km/h 89 % 0 in /  0.0 mm
04:22 27.5 °F /  -2.5 °C 24.4 °F /  -4.2 °C 30.4 in /  1029.0 hPa NNE 8 mph /  12.9 km/h 14 mph /  22.5 km/h 88 % 0 in /  0.0 mm
04:32 27.3 °F /  -2.6 °C 24.3 °F /  -4.3 °C 30.4 in /  1029.0 hPa NNE 8 mph /  12.9 km/h 18 mph /  29.0 km/h 88 % 0 in /  0.0 mm
04:37 27.3 °F /  -2.6 °C 23.9 °F /  -4.5 °C 30.4 in /  1029.0 hPa NNE 7 mph /  11.3 km/h 15 mph /  24.1 km/h 87 % 0 in /  0.0 mm
04:42 27.1 °F /  -2.7 °C 23.7 °F /  -4.6 °C 30.4 in /  1029.0 hPa NNE 6 mph /  9.7 km/h 15 mph /  24.1 km/h 87 % 0 in /  0.0 mm
04:47 27.1 °F /  -2.7 °C 23.7 °F /  -4.6 °C 30.4 in /  1029.0 hPa NNE 3 mph /  4.8 km/h 14 mph /  22.5 km/h 87 % 0 in /  0.0 mm
04:57 26.8 °F /  -2.9 °C 23.7 °F /  -4.6 °C 30.4 in /  1029.3 hPa NNE 9 mph /  14.5 km/h 11 mph /  17.7 km/h 88 % 0 in /  0.0 mm
05:02 26.8 °F /  -2.9 °C 23.7 °F /  -4.6 °C 30.4 in /  1029.3 hPa NE 8 mph /  12.9 km/h 11 mph /  17.7 km/h 88 % 0 in /  0.0 mm
05:12 26.8 °F /  -2.9 °C 23.4 °F /  -4.8 °C 30.4 in /  1029.3 hPa North 5 mph /  8.0 km/h 14 mph /  22.5 km/h 87 % 0 in /  0.0 mm
05:22 26.8 °F /  -2.9 °C 23.4 °F /  -4.8 °C 30.4 in /  1029.3 hPa North 5 mph /  8.0 km/h 14 mph /  22.5 km/h 87 % 0 in /  0.0 mm
05:27 26.6 °F /  -3.0 °C 23 °F /  -5.0 °C 30.4 in /  1029.3 hPa North 1 mph /  1.6 km/h 13 mph /  20.9 km/h 86 % 0 in /  0.0 mm
05:32 26.4 °F /  -3.1 °C 23 °F /  -5.0 °C 30.4 in /  1029.3 hPa NNE 2 mph /  3.2 km/h 13 mph /  20.9 km/h 87 % 0 in /  0.0 mm
05:42 26.4 °F /  -3.1 °C 22.8 °F /  -5.1 °C 30.4 in /  1029.3 hPa NE 3 mph /  4.8 km/h 12 mph /  19.3 km/h 86 % 0 in /  0.0 mm
05:47 26.4 °F /  -3.1 °C 22.8 °F /  -5.1 °C 30.4 in /  1029.7 hPa NE 4 mph /  6.4 km/h 12 mph /  19.3 km/h 86 % 0 in /  0.0 mm
05:52 26.4 °F /  -3.1 °C 22.8 °F /  -5.1 °C 30.4 in /  1029.3 hPa NE 6 mph /  9.7 km/h 12 mph /  19.3 km/h 86 % 0 in /  0.0 mm
05:57 26.2 °F /  -3.2 °C 22.6 °F /  -5.2 °C 30.4 in /  1029.3 hPa NNE 8 mph /  12.9 km/h 17 mph /  27.4 km/h 86 % 0 in /  0.0 mm
06:02 26.2 °F /  -3.2 °C 22.6 °F /  -5.2 °C 30.4 in /  1029.3 hPa NE 11 mph /  17.7 km/h 17 mph /  27.4 km/h 86 % 0 in /  0.0 mm
06:07 26.2 °F /  -3.2 °C 22.3 °F /  -5.4 °C 30.4 in /  1029.3 hPa NNE 2 mph /  3.2 km/h 17 mph /  27.4 km/h 85 % 0 in /  0.0 mm
06:12 26.2 °F /  -3.2 °C 22.3 °F /  -5.4 °C 30.4 in /  1029.3 hPa North 2 mph /  3.2 km/h 17 mph /  27.4 km/h 85 % 0 in /  0.0 mm
06:17 26.1 °F /  -3.3 °C 22.1 °F /  -5.5 °C 30.4 in /  1029.3 hPa NNE 4 mph /  6.4 km/h 14 mph /  22.5 km/h 85 % 0 in /  0.0 mm
06:22 26.1 °F /  -3.3 °C 22.1 °F /  -5.5 °C 30.4 in /  1029.7 hPa NNW 1 mph /  1.6 km/h 14 mph /  22.5 km/h 85 % 0 in /  0.0 mm
06:27 25.9 °F /  -3.4 °C 21.9 °F /  -5.6 °C 30.4 in /  1029.7 hPa NE 4 mph /  6.4 km/h 14 mph /  22.5 km/h 85 % 0 in /  0.0 mm
06:32 25.9 °F /  -3.4 °C 21.9 °F /  -5.6 °C 30.4 in /  1029.7 hPa NNE 11 mph /  17.7 km/h 14 mph /  22.5 km/h 85 % 0 in /  0.0 mm
06:37 25.9 °F /  -3.4 °C 21.9 °F /  -5.6 °C 30.4 in /  1029.7 hPa NE 5 mph /  8.0 km/h 14 mph /  22.5 km/h 85 % 0 in /  0.0 mm
06:47 25.9 °F /  -3.4 °C 21.9 °F /  -5.6 °C 30.4 in /  1029.7 hPa NE 3 mph /  4.8 km/h 14 mph /  22.5 km/h 85 % 0 in /  0.0 mm
06:52 25.9 °F /  -3.4 °C 21.9 °F /  -5.6 °C 30.4 in /  1029.7 hPa NE 9 mph /  14.5 km/h 14 mph /  22.5 km/h 85 % 0 in /  0.0 mm
06:57 25.9 °F /  -3.4 °C 21.9 °F /  -5.6 °C 30.4 in /  1029.7 hPa NNE 6 mph /  9.7 km/h 15 mph /  24.1 km/h 85 % 0 in /  0.0 mm
07:02 25.7 °F /  -3.5 °C 21.7 °F /  -5.7 °C 30.4 in /  1030.0 hPa NE 9 mph /  14.5 km/h 15 mph /  24.1 km/h 85 % 0 in /  0.0 mm
07:12 25.5 °F /  -3.6 °C 21.6 °F /  -5.8 °C 30.4 in /  1030.0 hPa NE 10 mph /  16.1 km/h 15 mph /  24.1 km/h 85 % 0 in /  0.0 mm
07:17 25.5 °F /  -3.6 °C 21.6 °F /  -5.8 °C 30.4 in /  1030.0 hPa NE 9 mph /  14.5 km/h 11 mph /  17.7 km/h 85 % 0 in /  0.0 mm
07:22 25.5 °F /  -3.6 °C 21.6 °F /  -5.8 °C 30.4 in /  1030.0 hPa ENE 4 mph /  6.4 km/h 13 mph /  20.9 km/h 85 % 0 in /  0.0 mm
07:27 25.5 °F /  -3.6 °C 21.6 °F /  -5.8 °C 30.4 in /  1030.0 hPa NNW 2 mph /  3.2 km/h 13 mph /  20.9 km/h 85 % 0 in /  0.0 mm
07:32 25.3 °F /  -3.7 °C 21.4 °F /  -5.9 °C 30.4 in /  1030.0 hPa NNE 7 mph /  11.3 km/h 13 mph /  20.9 km/h 85 % 0 in /  0.0 mm
07:42 25.3 °F /  -3.7 °C 21.4 °F /  -5.9 °C 30.4 in /  1030.4 hPa NE 2 mph /  3.2 km/h 13 mph /  20.9 km/h 85 % 0 in /  0.0 mm
07:47 25.3 °F /  -3.7 °C 21.4 °F /  -5.9 °C 30.4 in /  1030.4 hPa NNW 1 mph /  1.6 km/h 13 mph /  20.9 km/h 85 % 0 in /  0.0 mm
07:52 25.3 °F /  -3.7 °C 21.4 °F /  -5.9 °C 30.4 in /  1030.4 hPa NE 6 mph /  9.7 km/h 13 mph /  20.9 km/h 85 % 0 in /  0.0 mm
07:57 25.2 °F /  -3.8 °C 21.4 °F /  -5.9 °C 30.4 in /  1030.4 hPa North 8 mph /  12.9 km/h 15 mph /  24.1 km/h 85 % 0 in /  0.0 mm
08:02 25.2 °F /  -3.8 °C 21.4 °F /  -5.9 °C 30.4 in /  1030.4 hPa NNE 4 mph /  6.4 km/h 15 mph /  24.1 km/h 85 % 0 in /  0.0 mm
08:12 25.2 °F /  -3.8 °C 21.4 °F /  -5.9 °C 30.4 in /  1030.7 hPa NW 3 mph /  4.8 km/h 15 mph /  24.1 km/h 85 % 0 in /  0.0 mm
08:17 25 °F /  -3.9 °C 21.2 °F /  -6.0 °C 30.4 in /  1030.7 hPa NNW 4 mph /  6.4 km/h 15 mph /  24.1 km/h 85 % 0 in /  0.0 mm
08:22 25 °F /  -3.9 °C 21.4 °F /  -5.9 °C 30.4 in /  1030.7 hPa NE 7 mph /  11.3 km/h 15 mph /  24.1 km/h 86 % 0 in /  0.0 mm
08:32 24.6 °F /  -4.1 °C 21 °F /  -6.1 °C 30.4 in /  1030.7 hPa NE 5 mph /  8.0 km/h 13 mph /  20.9 km/h 86 % 0 in /  0.0 mm
08:37 24.6 °F /  -4.1 °C 21 °F /  -6.1 °C 30.4 in /  1030.7 hPa ENE 5 mph /  8.0 km/h 12 mph /  19.3 km/h 86 % 0 in /  0.0 mm
08:42 24.6 °F /  -4.1 °C 21.4 °F /  -5.9 °C 30.4 in /  1030.7 hPa NNE 8 mph /  12.9 km/h 12 mph /  19.3 km/h 87 % 0 in /  0.0 mm
08:47 24.6 °F /  -4.1 °C 21 °F /  -6.1 °C 30.4 in /  1030.7 hPa NE 8 mph /  12.9 km/h 12 mph /  19.3 km/h 86 % 0 in /  0.0 mm
08:52 24.6 °F /  -4.1 °C 21 °F /  -6.1 °C 30.4 in /  1030.7 hPa NE 6 mph /  9.7 km/h 12 mph /  19.3 km/h 86 % 0 in /  0.0 mm
08:57 24.6 °F /  -4.1 °C 21 °F /  -6.1 °C 30.4 in /  1030.7 hPa NNW 2 mph /  3.2 km/h 13 mph /  20.9 km/h 86 % 0 in /  0.0 mm
09:02 24.6 °F /  -4.1 °C 21.4 °F /  -5.9 °C 30.4 in /  1030.7 hPa NE 2 mph /  3.2 km/h 13 mph /  20.9 km/h 87 % 0 in /  0.0 mm
09:12 24.8 °F /  -4.0 °C 21.2 °F /  -6.0 °C 30.4 in /  1030.7 hPa NNE 5 mph /  8.0 km/h 11 mph /  17.7 km/h 86 % 0 in /  0.0 mm
09:17 25 °F /  -3.9 °C 21.7 °F /  -5.7 °C 30.4 in /  1030.7 hPa NW 3 mph /  4.8 km/h 12 mph /  19.3 km/h 87 % 0 in /  0.0 mm
09:22 25.2 °F /  -3.8 °C 21.6 °F /  -5.8 °C 30.4 in /  1031.0 hPa NNW 4 mph /  6.4 km/h 12 mph /  19.3 km/h 86 % 0 in /  0.0 mm
09:32 25.3 °F /  -3.7 °C 21.7 °F /  -5.7 °C 30.4 in /  1031.0 hPa North 3 mph /  4.8 km/h 12 mph /  19.3 km/h 86 % 0 in /  0.0 mm
09:37 25.5 °F /  -3.6 °C 21.9 °F /  -5.6 °C 30.4 in /  1031.0 hPa NNE 5 mph /  8.0 km/h 14 mph /  22.5 km/h 86 % 0 in /  0.0 mm
09:42 25.7 °F /  -3.5 °C 22.1 °F /  -5.5 °C 30.4 in /  1031.0 hPa North 3 mph /  4.8 km/h 14 mph /  22.5 km/h 86 % 0 in /  0.0 mm
09:52 25.9 °F /  -3.4 °C 22.3 °F /  -5.4 °C 30.4 in /  1031.0 hPa NNE 6 mph /  9.7 km/h 14 mph /  22.5 km/h 86 % 0 in /  0.0 mm
09:57 25.9 °F /  -3.4 °C 22.3 °F /  -5.4 °C 30.4 in /  1031.0 hPa NNW 4 mph /  6.4 km/h 11 mph /  17.7 km/h 86 % 0 in /  0.0 mm
10:02 26.1 °F /  -3.3 °C 22.5 °F /  -5.3 °C 30.4 in /  1031.0 hPa North 7 mph /  11.3 km/h 11 mph /  17.7 km/h 86 % 0 in /  0.0 mm
10:12 26.2 °F /  -3.2 °C 22.6 °F /  -5.2 °C 30.4 in /  1031.0 hPa North 2 mph /  3.2 km/h 11 mph /  17.7 km/h 86 % 0 in /  0.0 mm
10:17 26.4 °F /  -3.1 °C 22.8 °F /  -5.1 °C 30.4 in /  1031.0 hPa North 5 mph /  8.0 km/h 12 mph /  19.3 km/h 86 % 0 in /  0.0 mm
10:22 26.6 °F /  -3.0 °C 23 °F /  -5.0 °C 30.4 in /  1031.0 hPa NE 3 mph /  4.8 km/h 12 mph /  19.3 km/h 86 % 0 in /  0.0 mm
10:32 26.8 °F /  -2.9 °C 23.2 °F /  -4.9 °C 30.4 in /  1031.0 hPa NNW 3 mph /  4.8 km/h 14 mph /  22.5 km/h 86 % 0 in /  0.0 mm
10:37 26.8 °F /  -2.9 °C 22.8 °F /  -5.1 °C 30.4 in /  1031.0 hPa West 3 mph /  4.8 km/h 14 mph /  22.5 km/h 85 % 0 in /  0.0 mm
10:42 27 °F /  -2.8 °C 23 °F /  -5.0 °C 30.4 in /  1031.0 hPa NNE 11 mph /  17.7 km/h 16 mph /  25.7 km/h 85 % 0 in /  0.0 mm
10:47 27 °F /  -2.8 °C 23 °F /  -5.0 °C 30.4 in /  1031.0 hPa North 5 mph /  8.0 km/h 16 mph /  25.7 km/h 85 % 0 in /  0.0 mm
10:57 27.1 °F /  -2.7 °C 23.2 °F /  -4.9 °C 30.4 in /  1031.0 hPa NW 7 mph /  11.3 km/h 16 mph /  25.7 km/h 85 % 0 in /  0.0 mm
11:02 27.3 °F /  -2.6 °C 23.2 °F /  -4.9 °C 30.5 in /  1031.4 hPa NNW 13 mph /  20.9 km/h 14 mph /  22.5 km/h 84 % 0 in /  0.0 mm
11:07 27.3 °F /  -2.6 °C 23.4 °F /  -4.8 °C 30.5 in /  1031.4 hPa NNW 7 mph /  11.3 km/h 16 mph /  25.7 km/h 85 % 0 in /  0.0 mm
11:12 27.5 °F /  -2.5 °C 23.5 °F /  -4.7 °C 30.5 in /  1031.4 hPa NNW 6 mph /  9.7 km/h 16 mph /  25.7 km/h 85 % 0 in /  0.0 mm
11:22 27.9 °F /  -2.3 °C 23.7 °F /  -4.6 °C 30.4 in /  1031.0 hPa NW 4 mph /  6.4 km/h 15 mph /  24.1 km/h 84 % 0 in /  0.0 mm
11:27 27.9 °F /  -2.3 °C 23.4 °F /  -4.8 °C 30.4 in /  1031.0 hPa North 11 mph /  17.7 km/h 15 mph /  24.1 km/h 83 % 0 in /  0.0 mm
11:32 28 °F /  -2.2 °C 23.5 °F /  -4.7 °C 30.4 in /  1031.0 hPa North 6 mph /  9.7 km/h 15 mph /  24.1 km/h 83 % 0 in /  0.0 mm
11:37 28.2 °F /  -2.1 °C 23.7 °F /  -4.6 °C 30.4 in /  1031.0 hPa North 12 mph /  19.3 km/h 16 mph /  25.7 km/h 83 % 0 in /  0.0 mm
11:42 28.2 °F /  -2.1 °C 23.4 °F /  -4.8 °C 30.4 in /  1031.0 hPa NNE 11 mph /  17.7 km/h 20 mph /  32.2 km/h 82 % 0 in /  0.0 mm
11:47 28.4 °F /  -2.0 °C 23.4 °F /  -4.8 °C 30.4 in /  1031.0 hPa NNE 9 mph /  14.5 km/h 20 mph /  32.2 km/h 81 % 0 in /  0.0 mm
11:52 28.6 °F /  -1.9 °C 23.5 °F /  -4.7 °C 30.4 in /  1031.0 hPa NNE 10 mph /  16.1 km/h 20 mph /  32.2 km/h 81 % 0 in /  0.0 mm
11:57 28.6 °F /  -1.9 °C 23.5 °F /  -4.7 °C 30.4 in /  1031.0 hPa NNW 11 mph /  17.7 km/h 18 mph /  29.0 km/h 81 % 0 in /  0.0 mm
12:02 28.8 °F /  -1.8 °C 23.7 °F /  -4.6 °C 30.4 in /  1030.7 hPa NNW 3 mph /  4.8 km/h 18 mph /  29.0 km/h 81 % 0 in /  0.0 mm
12:12 28.9 °F /  -1.7 °C 23.9 °F /  -4.5 °C 30.4 in /  1030.7 hPa NNW 9 mph /  14.5 km/h 19 mph /  30.6 km/h 81 % 0 in /  0.0 mm
12:17 29.1 °F /  -1.6 °C 23.7 °F /  -4.6 °C 30.4 in /  1030.7 hPa NNE 6 mph /  9.7 km/h 19 mph /  30.6 km/h 80 % 0 in /  0.0 mm
12:22 29.1 °F /  -1.6 °C 23.7 °F /  -4.6 °C 30.4 in /  1030.7 hPa NNE 8 mph /  12.9 km/h 19 mph /  30.6 km/h 80 % 0 in /  0.0 mm
12:27 29.5 °F /  -1.4 °C 24.1 °F /  -4.4 °C 30.4 in /  1030.7 hPa North 11 mph /  17.7 km/h 19 mph /  30.6 km/h 80 % 0 in /  0.0 mm
12:32 29.5 °F /  -1.4 °C 24.1 °F /  -4.4 °C 30.4 in /  1030.7 hPa NNE 6 mph /  9.7 km/h 16 mph /  25.7 km/h 80 % 0 in /  0.0 mm
12:37 29.7 °F /  -1.3 °C 24.3 °F /  -4.3 °C 30.4 in /  1030.7 hPa NNE 6 mph /  9.7 km/h 17 mph /  27.4 km/h 80 % 0 in /  0.0 mm
12:42 29.7 °F /  -1.3 °C 23.7 °F /  -4.6 °C 30.4 in /  1030.7 hPa North 13 mph /  20.9 km/h 20 mph /  32.2 km/h 78 % 0 in /  0.0 mm
12:47 29.8 °F /  -1.2 °C 23.9 °F /  -4.5 °C 30.4 in /  1030.7 hPa NE 14 mph /  22.5 km/h 20 mph /  32.2 km/h 78 % 0 in /  0.0 mm
12:52 30 °F /  -1.1 °C 24.3 °F /  -4.3 °C 30.4 in /  1030.7 hPa NNE 9 mph /  14.5 km/h 20 mph /  32.2 km/h 79 % 0 in /  0.0 mm
12:57 29.8 °F /  -1.2 °C 22.8 °F /  -5.1 °C 30.4 in /  1030.7 hPa NE 11 mph /  17.7 km/h 24 mph /  38.6 km/h 75 % 0 in /  0.0 mm
13:02 29.7 °F /  -1.3 °C 23 °F /  -5.0 °C 30.4 in /  1030.7 hPa NNE 13 mph /  20.9 km/h 24 mph /  38.6 km/h 76 % 0 in /  0.0 mm
13:12 29.1 °F /  -1.6 °C 23.4 °F /  -4.8 °C 30.4 in /  1031.0 hPa North 9 mph /  14.5 km/h 22 mph /  35.4 km/h 79 % 0 in /  0.0 mm
13:17 29.1 °F /  -1.6 °C 23.7 °F /  -4.6 °C 30.4 in /  1031.0 hPa NNE 12 mph /  19.3 km/h 22 mph /  35.4 km/h 80 % 0 in /  0.0 mm
13:22 29.1 °F /  -1.6 °C 23.7 °F /  -4.6 °C 30.4 in /  1031.0 hPa East 12 mph /  19.3 km/h 19 mph /  30.6 km/h 80 % 0 in /  0.0 mm
13:27 28.9 °F /  -1.7 °C 23.2 °F /  -4.9 °C 30.4 in /  1031.0 hPa NE 7 mph /  11.3 km/h 19 mph /  30.6 km/h 79 % 0 in /  0.0 mm
13:32 28.9 °F /  -1.7 °C 23.9 °F /  -4.5 °C 30.4 in /  1031.0 hPa NE 9 mph /  14.5 km/h 19 mph /  30.6 km/h 81 % 0 in /  0.0 mm
13:37 28.8 °F /  -1.8 °C 23 °F /  -5.0 °C 30.4 in /  1031.0 hPa NNE 5 mph /  8.0 km/h 18 mph /  29.0 km/h 79 % 0 in /  0.0 mm
13:42 28.6 °F /  -1.9 °C 22.8 °F /  -5.1 °C 30.4 in /  1031.0 hPa NNE 12 mph /  19.3 km/h 18 mph /  29.0 km/h 79 % 0 in /  0.0 mm
13:52 27.7 °F /  -2.4 °C 22.3 °F /  -5.4 °C 30.4 in /  1031.0 hPa NNE 13 mph /  20.9 km/h 22 mph /  35.4 km/h 80 % 0 in /  0.0 mm
13:57 27.7 °F /  -2.4 °C 22.3 °F /  -5.4 °C 30.4 in /  1031.0 hPa NNE 14 mph /  22.5 km/h 22 mph /  35.4 km/h 80 % 0 in /  0.0 mm
14:02 27.5 °F /  -2.5 °C 22.5 °F /  -5.3 °C 30.4 in /  1031.0 hPa NNE 10 mph /  16.1 km/h 21 mph /  33.8 km/h 81 % 0 in /  0.0 mm
14:12 27.5 °F /  -2.5 °C 22.1 °F /  -5.5 °C 30.4 in /  1030.7 hPa NE 12 mph /  19.3 km/h 21 mph /  33.8 km/h 80 % 0 in /  0.0 mm
14:17 27.9 °F /  -2.3 °C 23 °F /  -5.0 °C 30.4 in /  1030.7 hPa NE 10 mph /  16.1 km/h 18 mph /  29.0 km/h 82 % 0 in /  0.0 mm
14:22 27.9 °F /  -2.3 °C 23 °F /  -5.0 °C 30.4 in /  1030.7 hPa North 10 mph /  16.1 km/h 18 mph /  29.0 km/h 82 % 0 in /  0.0 mm
14:32 27.3 °F /  -2.6 °C 22.3 °F /  -5.4 °C 30.4 in /  1030.7 hPa NNE 7 mph /  11.3 km/h 19 mph /  30.6 km/h 81 % 0 in /  0.0 mm
14:37 27.3 °F /  -2.6 °C 22.6 °F /  -5.2 °C 30.4 in /  1030.7 hPa North 8 mph /  12.9 km/h 19 mph /  30.6 km/h 82 % 0 in /  0.0 mm
14:42 27.5 °F /  -2.5 °C 22.5 °F /  -5.3 °C 30.4 in /  1030.7 hPa North 14 mph /  22.5 km/h 22 mph /  35.4 km/h 81 % 0 in /  0.0 mm
14:47 27.5 °F /  -2.5 °C 22.5 °F /  -5.3 °C 30.4 in /  1030.7 hPa NE 5 mph /  8.0 km/h 22 mph /  35.4 km/h 81 % 0 in /  0.0 mm
14:52 27.1 °F /  -2.7 °C 21.7 °F /  -5.7 °C 30.4 in /  1031.0 hPa North 8 mph /  12.9 km/h 24 mph /  38.6 km/h 80 % 0 in /  0.0 mm
14:57 27 °F /  -2.8 °C 21.6 °F /  -5.8 °C 30.4 in /  1031.0 hPa North 12 mph /  19.3 km/h 24 mph /  38.6 km/h 80 % 0 in /  0.0 mm
15:02 27.1 °F /  -2.7 °C 22.1 °F /  -5.5 °C 30.4 in /  1031.0 hPa NNW 11 mph /  17.7 km/h 24 mph /  38.6 km/h 81 % 0 in /  0.0 mm
15:12 26.4 °F /  -3.1 °C 21 °F /  -6.1 °C 30.4 in /  1031.0 hPa NNE 16 mph /  25.7 km/h 26 mph /  41.8 km/h 80 % 0 in /  0.0 mm
15:17 26.4 °F /  -3.1 °C 21.4 °F /  -5.9 °C 30.4 in /  1031.0 hPa NE 13 mph /  20.9 km/h 26 mph /  41.8 km/h 81 % 0 in /  0.0 mm
15:22 26.4 °F /  -3.1 °C 21.7 °F /  -5.7 °C 30.4 in /  1031.0 hPa NNE 12 mph /  19.3 km/h 23 mph /  37.0 km/h 82 % 0 in /  0.0 mm
15:27 26.4 °F /  -3.1 °C 21.7 °F /  -5.7 °C 30.4 in /  1031.0 hPa NNE 9 mph /  14.5 km/h 21 mph /  33.8 km/h 82 % 0 in /  0.0 mm
15:32 26.4 °F /  -3.1 °C 21.7 °F /  -5.7 °C 30.4 in /  1031.0 hPa NNW 8 mph /  12.9 km/h 21 mph /  33.8 km/h 82 % 0 in /  0.0 mm
15:37 26.2 °F /  -3.2 °C 20.8 °F /  -6.2 °C 30.4 in /  1031.0 hPa NE 7 mph /  11.3 km/h 23 mph /  37.0 km/h 80 % 0 in /  0.0 mm
15:42 26.2 °F /  -3.2 °C 21.2 °F /  -6.0 °C 30.4 in /  1031.0 hPa NNE 3 mph /  4.8 km/h 23 mph /  37.0 km/h 81 % 0 in /  0.0 mm
15:52 26.2 °F /  -3.2 °C 20.8 °F /  -6.2 °C 30.4 in /  1031.0 hPa NE 11 mph /  17.7 km/h 20 mph /  32.2 km/h 80 % 0 in /  0.0 mm
15:57 26.2 °F /  -3.2 °C 21.2 °F /  -6.0 °C 30.4 in /  1031.0 hPa North 13 mph /  20.9 km/h 20 mph /  32.2 km/h 81 % 0 in /  0.0 mm
16:02 26.6 °F /  -3.0 °C 21.9 °F /  -5.6 °C 30.4 in /  1031.0 hPa NNE 12 mph /  19.3 km/h 20 mph /  32.2 km/h 82 % 0 in /  0.0 mm
16:07 26.8 °F /  -2.9 °C 21.7 °F /  -5.7 °C 30.4 in /  1031.0 hPa NNE 9 mph /  14.5 km/h 18 mph /  29.0 km/h 81 % 0 in /  0.0 mm
16:12 26.8 °F /  -2.9 °C 21.7 °F /  -5.7 °C 30.4 in /  1031.0 hPa NNE 13 mph /  20.9 km/h 18 mph /  29.0 km/h 81 % 0 in /  0.0 mm
16:17 26.8 °F /  -2.9 °C 21.4 °F /  -5.9 °C 30.4 in /  1031.0 hPa NNE 3 mph /  4.8 km/h 19 mph /  30.6 km/h 80 % 0 in /  0.0 mm
16:22 26.8 °F /  -2.9 °C 21.4 °F /  -5.9 °C 30.4 in /  1031.0 hPa North 2 mph /  3.2 km/h 19 mph /  30.6 km/h 80 % 0 in /  0.0 mm
16:27 26.8 °F /  -2.9 °C 21.4 °F /  -5.9 °C 30.4 in /  1031.0 hPa ENE 11 mph /  17.7 km/h 19 mph /  30.6 km/h 80 % 0 in /  0.0 mm
16:32 26.8 °F /  -2.9 °C 21.4 °F /  -5.9 °C 30.4 in /  1031.0 hPa NNE 7 mph /  11.3 km/h 19 mph /  30.6 km/h 80 % 0 in /  0.0 mm
16:37 26.8 °F /  -2.9 °C 21.4 °F /  -5.9 °C 30.4 in /  1031.0 hPa North 2 mph /  3.2 km/h 19 mph /  30.6 km/h 80 % 0 in /  0.0 mm
16:42 26.8 °F /  -2.9 °C 21.2 °F /  -6.0 °C 30.4 in /  1031.0 hPa NNE 9 mph /  14.5 km/h 21 mph /  33.8 km/h 79 % 0 in /  0.0 mm
16:52 26.8 °F /  -2.9 °C 21.4 °F /  -5.9 °C 30.4 in /  1030.7 hPa NNW 5 mph /  8.0 km/h 21 mph /  33.8 km/h 80 % 0 in /  0.0 mm
16:57 26.8 °F /  -2.9 °C 21.4 °F /  -5.9 °C 30.4 in /  1030.7 hPa NNE 15 mph /  24.1 km/h 20 mph /  32.2 km/h 80 % 0 in /  0.0 mm
17:02 26.8 °F /  -2.9 °C 21.4 °F /  -5.9 °C 30.4 in /  1030.7 hPa NE 15 mph /  24.1 km/h 20 mph /  32.2 km/h 80 % 0 in /  0.0 mm
17:12 26.6 °F /  -3.0 °C 21.2 °F /  -6.0 °C 30.4 in /  1030.7 hPa East 8 mph /  12.9 km/h 21 mph /  33.8 km/h 80 % 0 in /  0.0 mm
17:17 26.4 °F /  -3.1 °C 21 °F /  -6.1 °C 30.4 in /  1030.7 hPa NNE 7 mph /  11.3 km/h 21 mph /  33.8 km/h 80 % 0 in /  0.0 mm
17:22 26.2 °F /  -3.2 °C 20.8 °F /  -6.2 °C 30.4 in /  1030.7 hPa NE 14 mph /  22.5 km/h 19 mph /  30.6 km/h 80 % 0 in /  0.0 mm
17:32 26.2 °F /  -3.2 °C 21.2 °F /  -6.0 °C 30.4 in /  1030.7 hPa North 8 mph /  12.9 km/h 21 mph /  33.8 km/h 81 % 0 in /  0.0 mm
17:37 26.1 °F /  -3.3 °C 21 °F /  -6.1 °C 30.4 in /  1030.7 hPa NNE 2 mph /  3.2 km/h 23 mph /  37.0 km/h 81 % 0 in /  0.0 mm
17:42 25.9 °F /  -3.4 °C 21.2 °F /  -6.0 °C 30.4 in /  1030.7 hPa NNW 5 mph /  8.0 km/h 23 mph /  37.0 km/h 82 % 0 in /  0.0 mm
17:52 25.7 °F /  -3.5 °C 21.2 °F /  -6.0 °C 30.4 in /  1030.7 hPa NNW 6 mph /  9.7 km/h 15 mph /  24.1 km/h 83 % 0 in /  0.0 mm
17:57 25.7 °F /  -3.5 °C 21.2 °F /  -6.0 °C 30.4 in /  1030.7 hPa North 11 mph /  17.7 km/h 14 mph /  22.5 km/h 83 % 0 in /  0.0 mm
18:07 25.9 °F /  -3.4 °C 21.4 °F /  -5.9 °C 30.4 in /  1030.7 hPa NE 5 mph /  8.0 km/h 17 mph /  27.4 km/h 83 % 0 in /  0.0 mm
18:12 25.9 °F /  -3.4 °C 21.4 °F /  -5.9 °C 30.4 in /  1030.7 hPa NE 4 mph /  6.4 km/h 17 mph /  27.4 km/h 83 % 0 in /  0.0 mm
18:17 25.9 °F /  -3.4 °C 21.4 °F /  -5.9 °C 30.4 in /  1030.7 hPa North 9 mph /  14.5 km/h 17 mph /  27.4 km/h 83 % 0 in /  0.0 mm
18:22 25.9 °F /  -3.4 °C 21.4 °F /  -5.9 °C 30.4 in /  1030.7 hPa NNE 5 mph /  8.0 km/h 17 mph /  27.4 km/h 83 % 0 in /  0.0 mm
18:27 25.9 °F /  -3.4 °C 21.4 °F /  -5.9 °C 30.4 in /  1030.7 hPa NNE 7 mph /  11.3 km/h 17 mph /  27.4 km/h 83 % 0 in /  0.0 mm
18:32 25.9 °F /  -3.4 °C 21.4 °F /  -5.9 °C 30.4 in /  1030.7 hPa Calm   17 mph /  27.4 km/h 83 % 0 in /  0.0 mm
18:37 25.9 °F /  -3.4 °C 21.4 °F /  -5.9 °C 30.4 in /  1031.0 hPa ENE 7 mph /  11.3 km/h 17 mph /  27.4 km/h 83 % 0 in /  0.0 mm
18:42 25.9 °F /  -3.4 °C 21.4 °F /  -5.9 °C 30.4 in /  1031.0 hPa NNE 8 mph /  12.9 km/h 16 mph /  25.7 km/h 83 % 0 in /  0.0 mm
18:47 26.1 °F /  -3.3 °C 21.6 °F /  -5.8 °C 30.4 in /  1031.0 hPa North 7 mph /  11.3 km/h 17 mph /  27.4 km/h 83 % 0 in /  0.0 mm
18:52 26.1 °F /  -3.3 °C 21.6 °F /  -5.8 °C 30.4 in /  1031.0 hPa NNE 14 mph /  22.5 km/h 17 mph /  27.4 km/h 83 % 0 in /  0.0 mm
18:57 26.1 °F /  -3.3 °C 21.6 °F /  -5.8 °C 30.4 in /  1031.0 hPa NE 7 mph /  11.3 km/h 17 mph /  27.4 km/h 83 % 0 in /  0.0 mm
19:02 26.1 °F /  -3.3 °C 21.6 °F /  -5.8 °C 30.4 in /  1031.0 hPa NNE 4 mph /  6.4 km/h 17 mph /  27.4 km/h 83 % 0 in /  0.0 mm
19:12 26.1 °F /  -3.3 °C 21.6 °F /  -5.8 °C 30.4 in /  1031.0 hPa NE 4 mph /  6.4 km/h 15 mph /  24.1 km/h 83 % 0 in /  0.0 mm
19:17 26.1 °F /  -3.3 °C 21.6 °F /  -5.8 °C 30.5 in /  1031.4 hPa East 3 mph /  4.8 km/h 17 mph /  27.4 km/h 83 % 0 in /  0.0 mm
19:22 26.2 °F /  -3.2 °C 21.7 °F /  -5.7 °C 30.5 in /  1031.4 hPa NW 7 mph /  11.3 km/h 20 mph /  32.2 km/h 83 % 0 in /  0.0 mm
19:32 26.2 °F /  -3.2 °C 21.7 °F /  -5.7 °C 30.5 in /  1031.4 hPa NE 4 mph /  6.4 km/h 17 mph /  27.4 km/h 83 % 0 in /  0.0 mm
19:37 26.2 °F /  -3.2 °C 21.7 °F /  -5.7 °C 30.5 in /  1031.4 hPa North 8 mph /  12.9 km/h 19 mph /  30.6 km/h 83 % 0 in /  0.0 mm
19:42 26.2 °F /  -3.2 °C 21.7 °F /  -5.7 °C 30.5 in /  1031.4 hPa North 8 mph /  12.9 km/h 23 mph /  37.0 km/h 83 % 0 in /  0.0 mm
19:47 26.2 °F /  -3.2 °C 21.7 °F /  -5.7 °C 30.5 in /  1031.4 hPa NE 6 mph /  9.7 km/h 23 mph /  37.0 km/h 83 % 0 in /  0.0 mm
19:52 26.2 °F /  -3.2 °C 21.7 °F /  -5.7 °C 30.5 in /  1031.4 hPa WNW 6 mph /  9.7 km/h 23 mph /  37.0 km/h 83 % 0 in /  0.0 mm
19:57 26.2 °F /  -3.2 °C 21.7 °F /  -5.7 °C 30.5 in /  1031.4 hPa NE 2 mph /  3.2 km/h 22 mph /  35.4 km/h 83 % 0 in /  0.0 mm
20:02 26.1 °F /  -3.3 °C 21.6 °F /  -5.8 °C 30.5 in /  1031.4 hPa NE 8 mph /  12.9 km/h 22 mph /  35.4 km/h 83 % 0 in /  0.0 mm
20:07 26.1 °F /  -3.3 °C 21.6 °F /  -5.8 °C 30.4 in /  1031.0 hPa NNW 13 mph /  20.9 km/h 22 mph /  35.4 km/h 83 % 0 in /  0.0 mm
20:22 25.9 °F /  -3.4 °C 21.4 °F /  -5.9 °C 30.4 in /  1031.0 hPa NE 7 mph /  11.3 km/h 20 mph /  32.2 km/h 83 % 0 in /  0.0 mm
20:32 25.7 °F /  -3.5 °C 21.2 °F /  -6.0 °C 30.4 in /  1031.0 hPa NNW 11 mph /  17.7 km/h 20 mph /  32.2 km/h 83 % 0 in /  0.0 mm
20:37 25.7 °F /  -3.5 °C 21.2 °F /  -6.0 °C 30.4 in /  1031.0 hPa NE 13 mph /  20.9 km/h 20 mph /  32.2 km/h 83 % 0 in /  0.0 mm
20:42 25.5 °F /  -3.6 °C 21 °F /  -6.1 °C 30.4 in /  1031.0 hPa NNE 8 mph /  12.9 km/h 18 mph /  29.0 km/h 83 % 0 in /  0.0 mm
20:47 25.3 °F /  -3.7 °C 21.2 °F /  -6.0 °C 30.4 in /  1031.0 hPa NNE 7 mph /  11.3 km/h 17 mph /  27.4 km/h 84 % 0 in /  0.0 mm
20:52 25.3 °F /  -3.7 °C 20.8 °F /  -6.2 °C 30.4 in /  1031.0 hPa ESE 5 mph /  8.0 km/h 16 mph /  25.7 km/h 83 % 0 in /  0.0 mm
20:57 25.3 °F /  -3.7 °C 20.8 °F /  -6.2 °C 30.4 in /  1031.0 hPa ENE 6 mph /  9.7 km/h 16 mph /  25.7 km/h 83 % 0 in /  0.0 mm
21:02 25.2 °F /  -3.8 °C 21 °F /  -6.1 °C 30.4 in /  1031.0 hPa NNW 13 mph /  20.9 km/h 16 mph /  25.7 km/h 84 % 0 in /  0.0 mm
21:07 25 °F /  -3.9 °C 20.8 °F /  -6.2 °C 30.4 in /  1031.0 hPa NNW 8 mph /  12.9 km/h 17 mph /  27.4 km/h 84 % 0 in /  0.0 mm
21:12 25 °F /  -3.9 °C 20.8 °F /  -6.2 °C 30.4 in /  1031.0 hPa NE 13 mph /  20.9 km/h 17 mph /  27.4 km/h 84 % 0 in /  0.0 mm
21:17 25 °F /  -3.9 °C 20.8 °F /  -6.2 °C 30.4 in /  1031.0 hPa NNW 3 mph /  4.8 km/h 17 mph /  27.4 km/h 84 % 0 in /  0.0 mm
21:22 24.8 °F /  -4.0 °C 20.7 °F /  -6.3 °C 30.4 in /  1031.0 hPa North 9 mph /  14.5 km/h 14 mph /  22.5 km/h 84 % 0 in /  0.0 mm
21:32 24.8 °F /  -4.0 °C 20.7 °F /  -6.3 °C 30.4 in /  1031.0 hPa North 7 mph /  11.3 km/h 16 mph /  25.7 km/h 84 % 0 in /  0.0 mm
21:37 24.6 °F /  -4.1 °C 20.8 °F /  -6.2 °C 30.4 in /  1031.0 hPa NE 5 mph /  8.0 km/h 16 mph /  25.7 km/h 85 % 0 in /  0.0 mm
21:42 24.6 °F /  -4.1 °C 20.8 °F /  -6.2 °C 30.4 in /  1030.7 hPa NNW 15 mph /  24.1 km/h 18 mph /  29.0 km/h 85 % 0 in /  0.0 mm
21:47 24.6 °F /  -4.1 °C 20.5 °F /  -6.4 °C 30.4 in /  1031.0 hPa NE 12 mph /  19.3 km/h 19 mph /  30.6 km/h 84 % 0 in /  0.0 mm
21:52 24.8 °F /  -4.0 °C 20.7 °F /  -6.3 °C 30.4 in /  1031.0 hPa NNE 7 mph /  11.3 km/h 19 mph /  30.6 km/h 84 % 0 in /  0.0 mm
21:57 24.6 °F /  -4.1 °C 20.5 °F /  -6.4 °C 30.4 in /  1031.0 hPa NE 11 mph /  17.7 km/h 19 mph /  30.6 km/h 84 % 0 in /  0.0 mm
22:02 24.6 °F /  -4.1 °C 20.5 °F /  -6.4 °C 30.4 in /  1031.0 hPa NNE 7 mph /  11.3 km/h 19 mph /  30.6 km/h 84 % 0 in /  0.0 mm
22:12 24.6 °F /  -4.1 °C 20.5 °F /  -6.4 °C 30.4 in /  1031.0 hPa North 9 mph /  14.5 km/h 18 mph /  29.0 km/h 84 % 0 in /  0.0 mm
22:17 24.4 °F /  -4.2 °C 20.3 °F /  -6.5 °C 30.4 in /  1031.0 hPa NNE 11 mph /  17.7 km/h 18 mph /  29.0 km/h 84 % 0 in /  0.0 mm
22:22 24.4 °F /  -4.2 °C 20.3 °F /  -6.5 °C 30.4 in /  1030.7 hPa North 4 mph /  6.4 km/h 17 mph /  27.4 km/h 84 % 0 in /  0.0 mm
22:32 24.6 °F /  -4.1 °C 20.5 °F /  -6.4 °C 30.4 in /  1030.7 hPa NE 12 mph /  19.3 km/h 20 mph /  32.2 km/h 84 % 0 in /  0.0 mm
22:37 24.6 °F /  -4.1 °C 20.1 °F /  -6.6 °C 30.4 in /  1030.7 hPa North 15 mph /  24.1 km/h 20 mph /  32.2 km/h 83 % 0 in /  0.0 mm
22:42 24.6 °F /  -4.1 °C 20.1 °F /  -6.6 °C 30.4 in /  1030.7 hPa NE 5 mph /  8.0 km/h 20 mph /  32.2 km/h 83 % 0 in /  0.0 mm
22:47 24.6 °F /  -4.1 °C 20.1 °F /  -6.6 °C 30.4 in /  1030.7 hPa NE 2 mph /  3.2 km/h 20 mph /  32.2 km/h 83 % 0 in /  0.0 mm
22:52 24.6 °F /  -4.1 °C 20.1 °F /  -6.6 °C 30.4 in /  1030.4 hPa NNW 11 mph /  17.7 km/h 19 mph /  30.6 km/h 83 % 0 in /  0.0 mm
22:57 24.6 °F /  -4.1 °C 19.9 °F /  -6.7 °C 30.4 in /  1030.7 hPa NNE 11 mph /  17.7 km/h 18 mph /  29.0 km/h 82 % 0 in /  0.0 mm
23:02 25 °F /  -3.9 °C 19.9 °F /  -6.7 °C 30.4 in /  1030.7 hPa NNW 4 mph /  6.4 km/h 18 mph /  29.0 km/h 81 % 0 in /  0.0 mm
23:07 25.2 °F /  -3.8 °C 19.9 °F /  -6.7 °C 30.4 in /  1030.7 hPa NNE 11 mph /  17.7 km/h 19 mph /  30.6 km/h 80 % 0 in /  0.0 mm
23:12 25.3 °F /  -3.7 °C 20.1 °F /  -6.6 °C 30.4 in /  1030.7 hPa North 7 mph /  11.3 km/h 22 mph /  35.4 km/h 80 % 0 in /  0.0 mm
23:17 25.3 °F /  -3.7 °C 20.1 °F /  -6.6 °C 30.4 in /  1030.7 hPa NE 10 mph /  16.1 km/h 22 mph /  35.4 km/h 80 % 0 in /  0.0 mm
23:22 25.3 °F /  -3.7 °C 19.8 °F /  -6.8 °C 30.4 in /  1030.7 hPa NNE 8 mph /  12.9 km/h 22 mph /  35.4 km/h 79 % 0 in /  0.0 mm
23:27 25.3 °F /  -3.7 °C 19.8 °F /  -6.8 °C 30.4 in /  1030.7 hPa NE 6 mph /  9.7 km/h 20 mph /  32.2 km/h 79 % 0 in /  0.0 mm
23:32 25.3 °F /  -3.7 °C 19.8 °F /  -6.8 °C 30.4 in /  1030.7 hPa North 14 mph /  22.5 km/h 20 mph /  32.2 km/h 79 % 0 in /  0.0 mm
23:37 25.3 °F /  -3.7 °C 19.8 °F /  -6.8 °C 30.4 in /  1030.7 hPa NE 7 mph /  11.3 km/h 20 mph /  32.2 km/h 79 % 0 in /  0.0 mm
23:42 25.3 °F /  -3.7 °C 19.8 °F /  -6.8 °C 30.4 in /  1030.7 hPa NNE 11 mph /  17.7 km/h 20 mph /  32.2 km/h 79 % 0 in /  0.0 mm
23:47 25.3 °F /  -3.7 °C 19.8 °F /  -6.8 °C 30.4 in /  1030.7 hPa NE 11 mph /  17.7 km/h 23 mph /  37.0 km/h 79 % 0 in /  0.0 mm
23:52 25.3 °F /  -3.7 °C 19.8 °F /  -6.8 °C 30.4 in /  1030.7 hPa NNE 13 mph /  20.9 km/h 23 mph /  37.0 km/h 79 % 0 in /  0.0 mm
23:57 25.3 °F /  -3.7 °C 19.8 °F /  -6.8 °C 30.4 in /  1030.7 hPa NNE 15 mph /  24.1 km/h 20 mph /  32.2 km/h 79 % 0 in /  0.0 mm
Meteo18
Compliments of Weather Underground - 4 mb

Script developed by  Jim McMurry - jmcmurry@mwt.net Adapted for the template by  Wim van der Kuil - Leuven-Template.eu

You find our weather info also at:

European Weather Network

Weather Underground

Equipment we use:

Weather-station
Davis Vue

Weather-program
Meteohub

Weather-server
Raspberry PI 2 B+

Provider
1 and 1

Davis Vue

Meteohub

Raspberry PI 2 B+

1 and 1